Time;durP1;ratioP1;P1;durP2;ratioP2;P2;SDS_P1;SDS_P2;PMS_P1;PMS_P2;Temp;Humidity;BMP_temperature;BMP_pressure;BME280_temperature;BME280_humidity;BME280_pressure;Samples;Min_cycle;Max_cycle;Signal;HPM_P1;HPM_P2
2022/05/18 00:00:27;;;;;;;;;;;21.20;84.00;;;;;;5052794;28;20003;-91
2022/05/18 00:02:54;;;;;;;;;;;21.10;84.40;;;;;;5055481;28;20019;-90
2022/05/18 00:05:19;;;;;;;;;;;21.10;85.80;;;;;;5056847;28;19960;-91
2022/05/18 00:07:45;;;;;;;;;;;21.10;85.60;;;;;;5055323;28;19913;-90
2022/05/18 00:10:10;;;;;;;;;;;21.10;85.00;;;;;;5056573;28;19970;-90
2022/05/18 00:12:42;;;;;;;;;;;21.10;84.60;;;;;;5056749;28;19916;-91
2022/05/18 00:15:07;;;;;;;;;;;21.10;84.60;;;;;;5056673;28;19909;-90
2022/05/18 00:17:34;;;;;;;;;;;21.00;84.10;;;;;;5051876;28;19954;-90
2022/05/18 00:20:00;;;;;;;;;;;21.00;83.90;;;;;;5056527;28;20405;-90
2022/05/18 00:22:25;;;;;;;;;;;21.00;84.50;;;;;;5056442;28;19953;-90
2022/05/18 00:24:51;;;;;;;;;;;21.00;84.60;;;;;;5056471;28;19963;-90
2022/05/18 00:27:16;;;;;;;;;;;21.00;84.70;;;;;;5055718;28;20215;-90
2022/05/18 00:29:42;;;;;;;;;;;21.00;84.50;;;;;;5055118;28;19926;-90
2022/05/18 00:32:07;;;;;;;;;;;21.00;84.30;;;;;;5055003;28;19970;-90
2022/05/18 00:34:33;;;;;;;;;;;20.90;84.40;;;;;;5056222;28;20401;-91
2022/05/18 00:36:59;;;;;;;;;;;20.90;84.30;;;;;;5055524;28;19913;-91
2022/05/18 00:39:24;;;;;;;;;;;20.90;84.60;;;;;;5055534;28;19921;-90
2022/05/18 00:41:50;;;;;;;;;;;20.80;85.30;;;;;;5056108;28;20011;-90
2022/05/18 00:44:15;;;;;;;;;;;20.80;85.20;;;;;;5056145;28;19913;-90
2022/05/18 00:46:41;;;;;;;;;;;20.90;86.10;;;;;;5054418;28;19957;-90
2022/05/18 00:49:07;;;;;;;;;;;20.90;86.20;;;;;;5056011;28;20397;-91
2022/05/18 00:51:42;;;;;;;;;;;20.90;86.30;;;;;;5055948;28;19909;-89
2022/05/18 00:54:18;;;;;;;;;;;20.90;85.70;;;;;;5055881;28;19915;-90
2022/05/18 00:56:53;;;;;;;;;;;21.00;85.40;;;;;;5055182;28;19959;-91
2022/05/18 00:59:21;;;;;;;;;;;21.00;85.60;;;;;;5055721;28;20025;-91
2022/05/18 01:01:48;;;;;;;;;;;20.90;86.00;;;;;;5054151;28;19913;-91
2022/05/18 01:04:14;;;;;;;;;;;20.80;87.10;;;;;;5055733;28;20344;-90
2022/05/18 01:06:44;;;;;;;;;;;20.80;87.70;;;;;;5054985;28;19913;-90
2022/05/18 01:09:18;;;;;;;;;;;20.80;88.30;;;;;;5055334;28;19944;-90
2022/05/18 01:11:44;;;;;;;;;;;20.80;88.20;;;;;;5055110;28;19913;-91
2022/05/18 01:14:19;;;;;;;;;;;20.80;88.00;;;;;;5053742;28;19967;-91
2022/05/18 01:16:45;;;;;;;;;;;20.70;87.80;;;;;;5054074;28;19952;-90
2022/05/18 01:19:18;;;;;;;;;;;20.80;87.60;;;;;;5055364;28;20000;-90
2022/05/18 01:21:48;;;;;;;;;;;20.70;87.60;;;;;;5055369;28;19908;-90
2022/05/18 01:24:14;;;;;;;;;;;20.70;87.50;;;;;;5054038;28;19921;-90
2022/05/18 01:26:44;;;;;;;;;;;20.60;87.50;;;;;;5055306;28;20370;-90
2022/05/18 01:29:10;;;;;;;;;;;20.60;87.40;;;;;;5055267;28;19928;-91
2022/05/18 01:31:49;;;;;;;;;;;20.60;87.90;;;;;;5053760;28;19913;-90
2022/05/18 01:34:16;;;;;;;;;;;20.60;87.90;;;;;;5055075;28;19915;-91
2022/05/18 01:36:42;;;;;;;;;;;20.60;87.70;;;;;;5055078;28;20385;-91
2022/05/18 01:39:10;;;;;;;;;;;20.50;87.70;;;;;;5054780;28;19931;-91
2022/05/18 01:41:40;;;;;;;;;;;20.50;87.70;;;;;;5053861;28;20408;-91
2022/05/18 01:44:05;;;;;;;;;;;20.50;87.80;;;;;;5054950;28;20334;-90
2022/05/18 01:46:31;;;;;;;;;;;20.50;87.60;;;;;;5054383;28;19916;-91
2022/05/18 01:48:57;;;;;;;;;;;20.50;87.50;;;;;;5054292;28;20024;-91
2022/05/18 01:51:32;;;;;;;;;;;20.60;87.50;;;;;;5054086;28;20429;-90
2022/05/18 01:53:58;;;;;;;;;;;20.60;87.20;;;;;;5054768;28;19909;-91
2022/05/18 01:56:23;;;;;;;;;;;20.60;87.10;;;;;;5054735;28;19992;-90
2022/05/18 01:58:49;;;;;;;;;;;20.70;87.00;;;;;;5054684;28;19916;-90
2022/05/18 02:01:15;;;;;;;;;;;20.60;87.10;;;;;;5053949;28;19917;-91
2022/05/18 02:03:41;;;;;;;;;;;20.60;87.20;;;;;;5052715;28;19960;-90
2022/05/18 02:06:07;;;;;;;;;;;20.50;88.00;;;;;;5054536;28;19909;-91
2022/05/18 02:08:32;;;;;;;;;;;20.60;88.30;;;;;;5054493;28;20286;-90
2022/05/18 02:10:58;;;;;;;;;;;20.60;88.20;;;;;;5054704;28;19954;-90
2022/05/18 02:13:24;;;;;;;;;;;20.50;88.40;;;;;;5053132;28;19921;-91
2022/05/18 02:15:50;;;;;;;;;;;20.40;88.50;;;;;;5054408;28;19924;-90
2022/05/18 02:18:15;;;;;;;;;;;20.40;88.60;;;;;;5053059;28;19984;-91
2022/05/18 02:20:41;;;;;;;;;;;20.30;88.40;;;;;;5054268;28;19946;-91
2022/05/18 02:23:06;;;;;;;;;;;20.30;88.80;;;;;;5052098;28;19919;-90
2022/05/18 02:25:32;;;;;;;;;;;20.30;89.30;;;;;;5053774;28;20013;-90
2022/05/18 02:27:58;;;;;;;;;;;20.30;89.30;;;;;;5054120;28;20428;-90
2022/05/18 02:30:23;;;;;;;;;;;20.30;89.10;;;;;;5053876;28;19913;-90
2022/05/18 02:32:49;;;;;;;;;;;20.30;88.80;;;;;;5053159;28;20386;-90
2022/05/18 02:35:15;;;;;;;;;;;20.30;88.60;;;;;;5054009;28;19957;-90
2022/05/18 02:37:40;;;;;;;;;;;20.20;88.60;;;;;;5053956;28;19916;-91
2022/05/18 02:40:07;;;;;;;;;;;20.10;88.60;;;;;;5053574;28;19984;-90
2022/05/18 02:42:32;;;;;;;;;;;20.10;88.70;;;;;;5053089;28;20329;-91
2022/05/18 02:44:58;;;;;;;;;;;20.00;89.10;;;;;;5053833;28;19915;-90
2022/05/18 02:47:24;;;;;;;;;;;19.80;89.40;;;;;;5052819;28;19917;-90
2022/05/18 02:49:51;;;;;;;;;;;19.70;89.80;;;;;;5053711;28;19992;-90
2022/05/18 02:52:17;;;;;;;;;;;19.70;89.90;;;;;;5049522;28;20388;-90
2022/05/18 02:57:26;;;;;;;;;;;19.70;90.00;;;;;;5053057;28;20362;-90
2022/05/18 02:59:52;;;;;;;;;;;19.60;90.30;;;;;;5053218;28;19943;-91
2022/05/18 03:02:17;;;;;;;;;;;19.70;90.50;;;;;;5052173;28;20020;-90
2022/05/18 03:04:43;;;;;;;;;;;19.80;90.20;;;;;;5049273;28;19929;-90
2022/05/18 03:07:09;;;;;;;;;;;19.80;90.00;;;;;;5053474;28;19945;-91
2022/05/18 03:09:34;;;;;;;;;;;19.90;89.80;;;;;;5052633;28;19923;-90
2022/05/18 03:12:01;;;;;;;;;;;19.90;89.60;;;;;;5053384;28;20381;-90
2022/05/18 03:14:27;;;;;;;;;;;19.90;89.50;;;;;;5053358;28;19940;-90
2022/05/18 03:16:52;;;;;;;;;;;20.00;89.40;;;;;;5052630;28;20082;-90
2022/05/18 03:19:18;;;;;;;;;;;20.10;89.20;;;;;;5053159;28;20298;-90
2022/05/18 03:24:28;;;;;;;;;;;20.30;88.80;;;;;;5052259;28;19959;-90
2022/05/18 03:26:53;;;;;;;;;;;20.30;88.90;;;;;;5052529;28;19952;-90
2022/05/18 03:29:19;;;;;;;;;;;20.10;89.30;;;;;;5053037;28;19958;-90
2022/05/18 03:31:46;;;;;;;;;;;20.10;89.60;;;;;;5053041;28;20343;-90
2022/05/18 03:34:12;;;;;;;;;;;20.10;89.90;;;;;;5051803;28;20358;-91
2022/05/18 03:36:37;;;;;;;;;;;20.10;89.70;;;;;;5052918;28;19961;-91
2022/05/18 03:39:03;;;;;;;;;;;20.10;89.50;;;;;;5052833;28;20515;-90
2022/05/18 03:41:28;;;;;;;;;;;20.10;89.50;;;;;;5053026;28;19922;-90
2022/05/18 03:43:54;;;;;;;;;;;20.10;89.40;;;;;;5052419;28;19967;-90
2022/05/18 03:46:20;;;;;;;;;;;20.10;89.30;;;;;;5052918;28;20372;-90
2022/05/18 03:48:45;;;;;;;;;;;20.20;89.30;;;;;;5051970;28;20454;-90
2022/05/18 03:51:12;;;;;;;;;;;20.20;89.40;;;;;;5035002;28;20390;-90
2022/05/18 03:53:38;;;;;;;;;;;20.20;89.90;;;;;;5052186;28;19950;-90
2022/05/18 03:56:04;;;;;;;;;;;20.30;89.60;;;;;;5052938;28;19952;-90
2022/05/18 03:58:29;;;;;;;;;;;20.30;89.30;;;;;;5052868;28;19946;-90
2022/05/18 04:00:55;;;;;;;;;;;20.30;89.10;;;;;;5052515;28;19945;-90
2022/05/18 04:03:23;;;;;;;;;;;20.30;89.00;;;;;;5051361;28;20018;-90
2022/05/18 04:05:49;;;;;;;;;;;20.30;88.80;;;;;;5052840;28;19927;-90
2022/05/18 04:08:14;;;;;;;;;;;20.30;88.60;;;;;;5053045;28;19913;-90
2022/05/18 04:10:40;;;;;;;;;;;20.40;88.40;;;;;;5052788;28;20406;-90
2022/05/18 04:13:07;;;;;;;;;;;20.40;88.20;;;;;;5049773;28;20387;-90
2022/05/18 04:15:33;;;;;;;;;;;20.50;87.90;;;;;;5052056;28;20000;-90
2022/05/18 04:17:59;;;;;;;;;;;20.50;87.40;;;;;;5051106;28;20426;-90
2022/05/18 04:20:25;;;;;;;;;;;20.60;86.90;;;;;;5052605;28;19978;-91
2022/05/18 04:22:51;;;;;;;;;;;20.70;84.90;;;;;;5051726;28;19913;-90
2022/05/18 04:25:19;;;;;;;;;;;20.80;80.30;;;;;;5052401;28;19990;-90
2022/05/18 04:27:47;;;;;;;;;;;20.80;79.50;;;;;;5044958;28;19947;-90
2022/05/18 04:30:24;;;;;;;;;;;20.80;79.20;;;;;;5052323;28;19958;-90
2022/05/18 04:32:49;;;;;;;;;;;20.80;79.20;;;;;;5051114;28;19943;-90
2022/05/18 04:35:16;;;;;;;;;;;20.80;79.20;;;;;;5052502;28;19909;-90
2022/05/18 04:37:42;;;;;;;;;;;20.80;79.20;;;;;;5051529;28;19948;-91
2022/05/18 04:40:08;;;;;;;;;;;20.80;79.30;;;;;;5048822;28;20060;-91
2022/05/18 04:42:34;;;;;;;;;;;20.80;78.40;;;;;;5052498;28;19946;-91
2022/05/18 04:44:59;;;;;;;;;;;20.70;78.50;;;;;;5052327;28;20017;-90
2022/05/18 04:47:25;;;;;;;;;;;20.60;78.40;;;;;;5052409;28;19958;-91
2022/05/18 04:49:51;;;;;;;;;;;20.70;78.00;;;;;;5055714;28;19943;-90
2022/05/18 04:52:17;;;;;;;;;;;20.60;77.80;;;;;;5055977;28;19954;-91
2022/05/18 04:54:43;;;;;;;;;;;20.50;77.60;;;;;;5055961;28;19983;-90
2022/05/18 04:57:08;;;;;;;;;;;20.30;78.60;;;;;;5049329;28;20347;-91
2022/05/18 04:59:34;;;;;;;;;;;20.20;79.70;;;;;;5044253;28;19967;-90
2022/05/18 05:01:59;;;;;;;;;;;20.10;80.90;;;;;;5050473;28;19936;-90
2022/05/18 05:04:25;;;;;;;;;;;19.90;81.80;;;;;;5058411;28;19930;-90
2022/05/18 05:06:50;;;;;;;;;;;19.90;82.90;;;;;;5054978;28;19993;-90
2022/05/18 05:09:16;;;;;;;;;;;19.90;83.60;;;;;;5054795;28;19927;-91
2022/05/18 05:11:42;;;;;;;;;;;19.80;83.50;;;;;;5053882;28;20394;-90
2022/05/18 05:14:08;;;;;;;;;;;19.80;83.60;;;;;;5055057;28;19961;-90
2022/05/18 05:16:34;;;;;;;;;;;19.90;84.20;;;;;;5053542;28;20275;-90
2022/05/18 05:18:59;;;;;;;;;;;19.90;84.90;;;;;;5052031;28;20003;-90
2022/05/18 05:21:25;;;;;;;;;;;20.00;85.40;;;;;;5054905;28;19967;-90
2022/05/18 05:23:50;;;;;;;;;;;20.10;85.70;;;;;;5055021;28;19946;-90
2022/05/18 05:26:16;;;;;;;;;;;20.10;85.80;;;;;;5052508;28;20014;-90
2022/05/18 05:28:42;;;;;;;;;;;19.90;85.30;;;;;;5054537;28;19920;-90
2022/05/18 05:31:08;;;;;;;;;;;19.90;86.50;;;;;;5051389;28;20460;-90
2022/05/18 05:33:34;;;;;;;;;;;20.00;86.00;;;;;;5050349;28;19927;-90
2022/05/18 05:36:00;;;;;;;;;;;20.20;86.60;;;;;;5049422;28;19923;-90
2022/05/18 05:38:25;;;;;;;;;;;20.30;85.20;;;;;;5050383;28;20009;-90
2022/05/18 05:40:51;;;;;;;;;;;20.40;82.50;;;;;;5048523;28;19925;-91
2022/05/18 05:43:17;;;;;;;;;;;20.60;82.40;;;;;;5052649;28;19929;-90
2022/05/18 05:45:42;;;;;;;;;;;20.80;81.70;;;;;;5050813;28;19978;-90
2022/05/18 05:48:09;;;;;;;;;;;20.90;81.90;;;;;;5052821;28;19913;-91
2022/05/18 05:50:35;;;;;;;;;;;21.00;80.70;;;;;;5048163;28;19921;-90
2022/05/18 05:53:00;;;;;;;;;;;21.10;80.70;;;;;;5050806;28;19991;-90
2022/05/18 05:55:27;;;;;;;;;;;21.20;81.40;;;;;;5051759;28;19948;-90
2022/05/18 05:57:55;;;;;;;;;;;21.20;81.30;;;;;;5049518;28;20018;-90
2022/05/18 06:00:22;;;;;;;;;;;21.20;81.70;;;;;;5053270;28;20416;-90
2022/05/18 06:02:47;;;;;;;;;;;21.20;81.80;;;;;;5053419;28;19944;-90
2022/05/18 06:05:13;;;;;;;;;;;21.10;81.00;;;;;;5054793;28;20270;-91
2022/05/18 06:07:39;;;;;;;;;;;21.10;81.10;;;;;;5052107;28;19958;-91
2022/05/18 06:10:05;;;;;;;;;;;21.10;82.20;;;;;;5050382;28;19926;-90
2022/05/18 06:12:30;;;;;;;;;;;21.10;82.00;;;;;;5053766;28;19968;-90
2022/05/18 06:14:57;;;;;;;;;;;21.00;83.40;;;;;;5049940;28;20071;-90
2022/05/18 06:17:23;;;;;;;;;;;21.10;82.60;;;;;;5050436;28;19912;-90
2022/05/18 06:19:48;;;;;;;;;;;21.10;80.60;;;;;;5050610;28;20440;-90
2022/05/18 06:22:14;;;;;;;;;;;21.20;80.10;;;;;;5043147;28;20003;-90
2022/05/18 06:24:40;;;;;;;;;;;21.30;79.10;;;;;;5049191;28;19939;-90
2022/05/18 06:27:06;;;;;;;;;;;21.30;78.10;;;;;;5045201;28;19930;-90
2022/05/18 06:29:32;;;;;;;;;;;21.40;77.00;;;;;;5054045;28;19943;-90
2022/05/18 06:31:57;;;;;;;;;;;21.50;77.50;;;;;;5052689;28;20013;-90
2022/05/18 06:34:23;;;;;;;;;;;21.50;77.40;;;;;;5048125;28;20323;-91
2022/05/18 06:36:49;;;;;;;;;;;21.60;78.00;;;;;;5050680;28;19959;-90
2022/05/18 06:39:18;;;;;;;;;;;21.60;79.20;;;;;;5052574;28;19951;-90
2022/05/18 06:41:44;;;;;;;;;;;21.80;79.10;;;;;;5050168;28;19967;-90
2022/05/18 06:44:09;;;;;;;;;;;21.80;77.80;;;;;;5047844;28;19925;-90
2022/05/18 06:46:36;;;;;;;;;;;21.90;76.40;;;;;;5051933;28;19916;-90
2022/05/18 06:49:03;;;;;;;;;;;22.00;76.00;;;;;;5050656;28;19947;-90
2022/05/18 06:51:31;;;;;;;;;;;22.00;76.00;;;;;;5052424;28;19928;-90
2022/05/18 06:53:57;;;;;;;;;;;22.10;75.80;;;;;;5051398;28;20026;-90
2022/05/18 06:56:25;;;;;;;;;;;22.20;76.00;;;;;;5050462;28;20037;-90
2022/05/18 06:58:51;;;;;;;;;;;22.30;75.30;;;;;;5047306;28;19960;-91
2022/05/18 07:01:17;;;;;;;;;;;22.40;75.20;;;;;;5051564;28;19968;-90
2022/05/18 07:03:44;;;;;;;;;;;22.50;74.80;;;;;;5047771;28;20458;-90
2022/05/18 07:06:10;;;;;;;;;;;22.60;74.60;;;;;;5052736;28;20001;-90
2022/05/18 07:08:36;;;;;;;;;;;22.70;74.30;;;;;;5048079;28;19913;-90
2022/05/18 07:11:03;;;;;;;;;;;22.70;74.00;;;;;;5048364;28;19921;-91
2022/05/18 07:13:30;;;;;;;;;;;22.80;74.20;;;;;;5048086;28;19920;-90
2022/05/18 07:15:55;;;;;;;;;;;22.80;73.30;;;;;;5046051;28;20013;-90
2022/05/18 07:18:25;;;;;;;;;;;22.90;72.70;;;;;;5049938;28;20013;-91
2022/05/18 07:20:50;;;;;;;;;;;22.90;72.70;;;;;;5049305;28;19955;-90
2022/05/18 07:23:16;;;;;;;;;;;23.00;72.70;;;;;;5050699;28;19958;-90
2022/05/18 07:25:41;;;;;;;;;;;23.20;72.70;;;;;;5047329;28;19948;-90
2022/05/18 07:28:09;;;;;;;;;;;23.30;71.90;;;;;;5046154;28;19943;-91
2022/05/18 07:30:34;;;;;;;;;;;23.40;71.60;;;;;;5048562;28;20290;-91
2022/05/18 07:33:00;;;;;;;;;;;23.60;71.50;;;;;;5048516;28;19956;-91
2022/05/18 07:35:25;;;;;;;;;;;23.70;70.80;;;;;;5050544;28;19920;-91
2022/05/18 07:37:51;;;;;;;;;;;23.80;70.30;;;;;;5031207;28;19917;-91
2022/05/18 07:40:16;;;;;;;;;;;24.00;69.50;;;;;;5062332;22;19990;-90
2022/05/18 07:42:42;;;;;;;;;;;24.10;70.00;;;;;;5061754;28;19992;-91
2022/05/18 07:45:08;;;;;;;;;;;24.20;68.30;;;;;;5058739;28;19943;-90
2022/05/18 07:47:33;;;;;;;;;;;24.30;67.90;;;;;;5060400;28;19912;-91
2022/05/18 07:49:59;;;;;;;;;;;24.30;66.60;;;;;;5063442;28;20277;-91
2022/05/18 07:52:25;;;;;;;;;;;24.30;66.90;;;;;;5065256;28;19916;-91
2022/05/18 07:54:51;;;;;;;;;;;24.30;68.00;;;;;;5065851;28;19919;-91
2022/05/18 07:57:17;;;;;;;;;;;24.30;68.70;;;;;;5065896;28;19912;-90
2022/05/18 07:59:43;;;;;;;;;;;24.40;68.80;;;;;;5063094;28;19954;-91
2022/05/18 08:02:08;;;;;;;;;;;24.40;67.10;;;;;;5066383;28;20385;-91
2022/05/18 08:04:34;;;;;;;;;;;24.50;68.10;;;;;;5066163;28;20332;-91
2022/05/18 08:06:59;;;;;;;;;;;24.60;67.70;;;;;;5068955;28;20254;-91
2022/05/18 08:09:25;;;;;;;;;;;24.70;67.00;;;;;;5067522;28;20347;-90
2022/05/18 08:17:20;;;;;;;;;;;24.80;66.40;;;;;;5054778;28;19999;-91
2022/05/18 08:19:46;;;;;;;;;;;24.80;67.20;;;;;;5060886;28;19916;-90
2022/05/18 08:22:12;;;;;;;;;;;24.80;66.80;;;;;;5067045;28;19913;-91
2022/05/18 08:24:37;;;;;;;;;;;24.90;66.80;;;;;;5054564;28;19919;-90
2022/05/18 08:27:10;;;;;;;;;;;24.80;66.20;;;;;;5037006;28;19912;-91
2022/05/18 08:29:36;;;;;;;;;;;24.80;66.10;;;;;;5052365;28;20398;-91
2022/05/18 08:32:02;;;;;;;;;;;24.90;66.20;;;;;;5051033;28;19923;-91
2022/05/18 08:34:28;;;;;;;;;;;24.90;67.10;;;;;;5050547;28;20000;-91
2022/05/18 08:36:53;;;;;;;;;;;24.90;67.20;;;;;;5048313;28;19913;-91
2022/05/18 08:39:19;;;;;;;;;;;24.80;66.60;;;;;;5050098;28;19959;-91
2022/05/18 08:41:45;;;;;;;;;;;24.90;67.50;;;;;;5058858;28;20361;-91
2022/05/18 08:44:19;;;;;;;;;;;24.90;67.90;;;;;;5054513;28;20286;-91
2022/05/18 08:46:52;;;;;;;;;;;24.90;68.40;;;;;;5038087;28;19981;-91
2022/05/18 08:49:35;;;;;;;;;;;24.90;70.70;;;;;;5051577;28;19939;-91
2022/05/18 08:52:04;;;;;;;;;;;25.00;69.00;;;;;;5050179;28;19928;-91
2022/05/18 08:54:44;;;;;;;;;;;25.00;67.50;;;;;;5050869;28;19921;-91
2022/05/18 08:57:21;;;;;;;;;;;25.00;67.80;;;;;;5051557;28;19958;-90
2022/05/18 08:59:50;;;;;;;;;;;25.10;68.70;;;;;;5045909;28;19966;-91
2022/05/18 09:02:17;;;;;;;;;;;25.10;67.90;;;;;;5046430;28;19939;-90
2022/05/18 09:04:45;;;;;;;;;;;25.10;68.90;;;;;;5050749;28;19917;-91
2022/05/18 09:07:12;;;;;;;;;;;25.20;71.30;;;;;;5054479;28;19939;-91
2022/05/18 09:12:45;;;;;;;;;;;25.20;68.60;;;;;;5051071;28;19924;-91
2022/05/18 09:15:13;;;;;;;;;;;25.30;70.10;;;;;;5052008;28;19982;-91
2022/05/18 09:17:39;;;;;;;;;;;25.40;69.50;;;;;;5049758;28;19913;-91
2022/05/18 09:20:15;;;;;;;;;;;25.30;70.10;;;;;;5053642;28;19956;-91
2022/05/18 09:22:43;;;;;;;;;;;25.50;70.50;;;;;;5049531;28;19913;-91
2022/05/18 09:25:12;;;;;;;;;;;25.60;67.80;;;;;;5053316;28;19912;-91
2022/05/18 09:27:45;;;;;;;;;;;25.70;68.10;;;;;;5048426;28;20008;-91
2022/05/18 09:30:17;;;;;;;;;;;25.80;67.00;;;;;;5050586;28;19912;-90
2022/05/18 09:32:48;;;;;;;;;;;25.90;66.60;;;;;;5045164;28;20436;-91
2022/05/18 09:35:46;;;;;;;;;;;26.00;66.20;;;;;;5047886;28;19921;-91
2022/05/18 09:38:27;;;;;;;;;;;26.20;65.70;;;;;;5015345;28;20827;-91
2022/05/18 09:40:52;;;;;;;;;;;26.20;64.90;;;;;;5054049;28;19921;-91
2022/05/18 09:43:27;;;;;;;;;;;26.20;64.00;;;;;;5051086;28;19919;-91
2022/05/18 09:45:54;;;;;;;;;;;26.20;64.70;;;;;;5054559;28;20002;-90
2022/05/18 09:48:23;;;;;;;;;;;26.30;64.20;;;;;;5053206;28;20285;-91
2022/05/18 09:50:49;;;;;;;;;;;26.40;64.90;;;;;;5050061;28;19917;-91
2022/05/18 09:53:15;;;;;;;;;;;26.50;65.10;;;;;;5053528;28;19982;-91
2022/05/18 09:55:44;;;;;;;;;;;26.70;63.60;;;;;;5051992;28;19952;-91
2022/05/18 09:58:13;;;;;;;;;;;26.80;64.70;;;;;;5051909;28;19917;-91
2022/05/18 10:00:39;;;;;;;;;;;26.90;63.10;;;;;;5051512;28;20439;-91
2022/05/18 10:09:11;;;;;;;;;;;27.10;62.00;;;;;;5045456;28;20412;-90
2022/05/18 10:11:38;;;;;;;;;;;27.00;62.10;;;;;;5039308;28;19913;-91
2022/05/18 10:14:09;;;;;;;;;;;27.00;60.70;;;;;;5044489;28;19956;-91
2022/05/18 10:16:37;;;;;;;;;;;27.10;60.30;;;;;;5054227;28;20306;-90
2022/05/18 10:19:03;;;;;;;;;;;27.10;60.20;;;;;;5054400;28;19909;-91
2022/05/18 10:21:34;;;;;;;;;;;27.10;60.20;;;;;;5052464;28;20332;-91
2022/05/18 10:24:18;;;;;;;;;;;27.30;60.10;;;;;;5054486;28;20325;-91
2022/05/18 10:26:44;;;;;;;;;;;27.60;56.30;;;;;;5034299;28;19913;-91
2022/05/18 10:29:12;;;;;;;;;;;27.70;54.40;;;;;;5034265;28;19974;-91
2022/05/18 10:31:43;;;;;;;;;;;27.70;57.30;;;;;;5032204;28;20278;-90
2022/05/18 10:34:22;;;;;;;;;;;27.80;54.80;;;;;;5054025;28;19916;-90
2022/05/18 10:36:55;;;;;;;;;;;27.90;54.50;;;;;;5041284;28;19913;-91
2022/05/18 10:39:30;;;;;;;;;;;28.10;55.10;;;;;;5053882;28;19963;-91
2022/05/18 10:41:56;;;;;;;;;;;28.20;54.80;;;;;;5053952;28;20362;-91
2022/05/18 10:44:22;;;;;;;;;;;28.30;51.20;;;;;;5050717;28;19958;-91
2022/05/18 10:46:50;;;;;;;;;;;28.40;57.20;;;;;;5053471;28;19948;-90
2022/05/18 10:49:25;;;;;;;;;;;28.40;52.30;;;;;;5053106;28;20031;-90
2022/05/18 10:51:50;;;;;;;;;;;28.60;53.60;;;;;;5052066;28;19912;-90
2022/05/18 10:54:22;;;;;;;;;;;28.70;53.60;;;;;;5053695;28;19954;-91
2022/05/18 10:56:48;;;;;;;;;;;28.80;49.30;;;;;;5053484;28;19909;-91
2022/05/18 10:59:14;;;;;;;;;;;28.80;48.90;;;;;;5052394;28;19913;-91
2022/05/18 11:01:42;;;;;;;;;;;28.70;49.10;;;;;;5053531;28;20019;-91
2022/05/18 11:04:11;;;;;;;;;;;28.80;51.30;;;;;;5053549;28;20441;-91
2022/05/18 11:06:38;;;;;;;;;;;28.70;50.90;;;;;;5052584;28;19921;-90
2022/05/18 11:09:06;;;;;;;;;;;28.70;50.00;;;;;;5053975;28;19931;-91
2022/05/18 11:11:50;;;;;;;;;;;28.80;50.40;;;;;;5053464;28;19909;-91
2022/05/18 11:14:23;;;;;;;;;;;28.80;49.30;;;;;;5053392;28;19919;-91
2022/05/18 11:16:58;;;;;;;;;;;29.00;46.50;;;;;;5051615;28;19920;-91
2022/05/18 11:19:29;;;;;;;;;;;28.90;48.70;;;;;;5033119;28;19995;-92
2022/05/18 11:22:15;;;;;;;;;;;28.70;45.60;;;;;;5035454;28;19948;-91
2022/05/18 11:24:53;;;;;;;;;;;28.70;47.40;;;;;;5050118;28;20002;-91
2022/05/18 11:27:33;;;;;;;;;;;28.80;51.40;;;;;;5040249;28;19920;-91
2022/05/18 11:30:04;;;;;;;;;;;29.10;49.80;;;;;;5039501;28;19999;-91
2022/05/18 11:32:32;;;;;;;;;;;29.40;46.00;;;;;;5046304;28;19920;-91
2022/05/18 11:35:14;;;;;;;;;;;29.50;47.20;;;;;;5051493;28;19912;-91
2022/05/18 11:37:45;;;;;;;;;;;29.40;47.00;;;;;;5052731;28;19955;-91
2022/05/18 11:40:11;;;;;;;;;;;29.20;46.50;;;;;;5055908;28;20358;-91
2022/05/18 11:42:48;;;;;;;;;;;29.30;48.50;;;;;;5050319;28;19952;-91
2022/05/18 11:45:18;;;;;;;;;;;29.50;49.80;;;;;;5047547;28;19914;-90
2022/05/18 11:47:59;;;;;;;;;;;29.40;45.20;;;;;;5048638;28;19913;-91
2022/05/18 11:50:37;;;;;;;;;;;29.50;50.70;;;;;;5050596;28;19921;-91
2022/05/18 11:53:21;;;;;;;;;;;29.30;47.90;;;;;;5042581;28;19920;-91
2022/05/18 11:56:11;;;;;;;;;;;29.50;45.40;;;;;;5048383;28;19913;-91
2022/05/18 12:01:46;;;;;;;;;;;29.10;49.50;;;;;;5006890;28;19932;-91
2022/05/18 12:04:17;;;;;;;;;;;29.20;48.40;;;;;;5048908;28;19920;-91
2022/05/18 12:06:49;;;;;;;;;;;29.30;48.60;;;;;;5055560;28;19913;-91
2022/05/18 12:09:17;;;;;;;;;;;29.70;47.90;;;;;;5056806;28;19931;-92
2022/05/18 12:11:57;;;;;;;;;;;30.00;48.90;;;;;;5054901;28;19936;-91
2022/05/18 12:14:41;;;;;;;;;;;30.60;45.60;;;;;;5062351;28;19921;-91
2022/05/18 12:17:09;;;;;;;;;;;31.00;46.10;;;;;;5059870;28;20412;-91
2022/05/18 12:19:38;;;;;;;;;;;31.20;42.50;;;;;;5055854;28;19964;-92
2022/05/18 12:22:10;;;;;;;;;;;31.50;42.30;;;;;;5055731;28;19913;-92
2022/05/18 12:24:37;;;;;;;;;;;31.60;45.70;;;;;;5053054;28;19916;-92
2022/05/18 12:27:03;;;;;;;;;;;31.70;43.30;;;;;;5052411;28;20248;-91
2022/05/18 12:29:29;;;;;;;;;;;31.90;41.60;;;;;;5046787;28;19974;-92
2022/05/18 12:31:56;;;;;;;;;;;31.70;41.60;;;;;;5055332;28;19971;-91
2022/05/18 12:34:24;;;;;;;;;;;30.90;41.90;;;;;;5056298;28;20247;-91
2022/05/18 12:36:49;;;;;;;;;;;30.30;47.60;;;;;;5053557;28;19917;-91
2022/05/18 12:39:20;;;;;;;;;;;30.40;46.00;;;;;;5057270;28;19932;-91
2022/05/18 12:41:48;;;;;;;;;;;31.00;44.00;;;;;;5042438;28;19927;-91
2022/05/18 12:44:33;;;;;;;;;;;31.60;43.50;;;;;;5054515;28;20366;-91
2022/05/18 12:47:09;;;;;;;;;;;32.20;42.30;;;;;;5053019;28;19920;-91
2022/05/18 12:49:37;;;;;;;;;;;32.90;41.30;;;;;;5052099;28;19987;-92
2022/05/18 12:52:05;;;;;;;;;;;33.30;40.70;;;;;;5052326;28;20392;-92
2022/05/18 12:54:53;;;;;;;;;;;34.20;37.70;;;;;;5052858;28;19923;-92
2022/05/18 12:57:21;;;;;;;;;;;34.70;38.60;;;;;;5054285;28;19912;-92
2022/05/18 12:59:56;;;;;;;;;;;34.70;40.60;;;;;;5060104;28;19917;-92
2022/05/18 13:02:36;;;;;;;;;;;35.60;36.80;;;;;;5052417;28;20286;-92
2022/05/18 13:05:25;;;;;;;;;;;36.10;37.00;;;;;;5055690;28;19913;-92
2022/05/18 13:07:52;;;;;;;;;;;37.00;34.00;;;;;;5035495;28;19913;-92
2022/05/18 13:10:19;;;;;;;;;;;38.00;31.50;;;;;;5047385;28;20283;-92
2022/05/18 13:12:47;;;;;;;;;;;37.90;34.90;;;;;;5055295;28;19913;-92
2022/05/18 13:15:24;;;;;;;;;;;37.70;34.00;;;;;;5055182;28;19920;-92
2022/05/18 13:17:50;;;;;;;;;;;38.60;32.40;;;;;;5054892;28;19913;-92
2022/05/18 13:20:29;;;;;;;;;;;38.70;32.00;;;;;;5053954;28;20369;-92
2022/05/18 13:23:05;;;;;;;;;;;38.80;33.40;;;;;;5048221;28;19953;-92
2022/05/18 13:25:41;;;;;;;;;;;38.60;32.30;;;;;;5055507;28;19963;-92
2022/05/18 13:28:09;;;;;;;;;;;38.30;33.20;;;;;;5055647;28;19966;-92
2022/05/18 13:30:42;;;;;;;;;;;37.80;33.30;;;;;;5055494;28;19912;-92
2022/05/18 13:33:09;;;;;;;;;;;38.20;33.30;;;;;;5056543;28;19920;-92
2022/05/18 13:35:36;;;;;;;;;;;38.80;32.10;;;;;;5065917;28;19932;-91
2022/05/18 13:38:08;;;;;;;;;;;38.20;31.70;;;;;;5053996;28;19923;-91
2022/05/18 13:40:34;;;;;;;;;;;37.90;33.90;;;;;;5070548;28;19966;-91
2022/05/18 13:43:12;;;;;;;;;;;37.50;34.40;;;;;;5055724;28;19913;-91
2022/05/18 13:45:38;;;;;;;;;;;36.90;35.00;;;;;;5054916;28;20039;-91
2022/05/18 13:48:10;;;;;;;;;;;36.40;35.00;;;;;;5053907;28;20421;-91
2022/05/18 13:50:41;;;;;;;;;;;36.10;35.10;;;;;;5052004;28;19960;-91
2022/05/18 13:53:10;;;;;;;;;;;36.30;35.30;;;;;;5052148;28;20334;-92
2022/05/18 13:55:40;;;;;;;;;;;36.90;35.20;;;;;;5035172;28;20458;-91
2022/05/18 13:58:07;;;;;;;;;;;37.30;33.50;;;;;;5053687;28;19917;-91
2022/05/18 14:00:40;;;;;;;;;;;37.60;33.40;;;;;;5053062;28;19916;-92
2022/05/18 14:03:05;;;;;;;;;;;37.40;32.50;;;;;;5053861;28;19999;-91
2022/05/18 14:05:32;;;;;;;;;;;37.70;33.40;;;;;;5053050;28;20003;-92
2022/05/18 14:08:00;;;;;;;;;;;37.20;33.10;;;;;;5058702;28;19920;-91
2022/05/18 14:10:27;;;;;;;;;;;37.10;33.40;;;;;;5055851;28;20281;-91
2022/05/18 14:13:01;;;;;;;;;;;36.60;33.60;;;;;;5050512;28;19980;-91
2022/05/18 14:15:28;;;;;;;;;;;35.60;33.80;;;;;;5050413;28;19964;-91
2022/05/18 14:17:54;;;;;;;;;;;34.90;35.80;;;;;;5053228;28;19913;-91
2022/05/18 14:20:30;;;;;;;;;;;34.40;36.40;;;;;;5054133;28;19917;-91
2022/05/18 14:22:57;;;;;;;;;;;34.00;38.10;;;;;;5046324;28;19956;-91
2022/05/18 14:25:26;;;;;;;;;;;35.10;35.90;;;;;;5046173;28;19939;-91
2022/05/18 14:27:54;;;;;;;;;;;36.00;34.30;;;;;;5052965;28;19936;-92
2022/05/18 14:30:21;;;;;;;;;;;36.60;32.90;;;;;;5053145;28;19917;-91
2022/05/18 14:32:50;;;;;;;;;;;36.30;33.70;;;;;;5054200;28;19913;-91
2022/05/18 14:35:18;;;;;;;;;;;36.20;31.10;;;;;;5053194;28;19917;-91
2022/05/18 14:37:44;;;;;;;;;;;35.10;34.60;;;;;;5050016;28;19913;-91
2022/05/18 14:40:11;;;;;;;;;;;35.10;34.00;;;;;;5053393;28;20378;-92
2022/05/18 14:42:46;;;;;;;;;;;35.30;33.60;;;;;;5051812;28;19917;-92
2022/05/18 14:45:18;;;;;;;;;;;35.60;33.60;;;;;;5045470;28;19991;-92